sensor_id;sensor_type;location;lat;lon;timestamp;pressure;altitude;pressure_sealevel;temperature;humidity
75188;BME280;63762;51.334;22.108;2023-01-13T00:00:09;101610.48;;;3.46;81.39
75188;BME280;63762;51.334;22.108;2023-01-13T00:10:18;101605.16;;;3.46;81.21
75188;BME280;63762;51.334;22.108;2023-01-13T00:20:22;101595.78;;;3.36;81.77
75188;BME280;63762;51.334;22.108;2023-01-13T00:30:29;101601.92;;;3.38;81.81
75188;BME280;63762;51.334;22.108;2023-01-13T00:40:36;101588.63;;;3.38;81.43
75188;BME280;63762;51.334;22.108;2023-01-13T00:50:44;101598.55;;;3.33;81.68
75188;BME280;63762;51.334;22.108;2023-01-13T01:00:51;101594.16;;;3.32;81.74
75188;BME280;63762;51.334;22.108;2023-01-13T01:11:05;101594.27;;;3.29;81.77
75188;BME280;63762;51.334;22.108;2023-01-13T01:21:07;101579.90;;;3.10;82.17
75188;BME280;63762;51.334;22.108;2023-01-13T01:31:20;101573.43;;;3.17;82.13
75188;BME280;63762;51.334;22.108;2023-01-13T01:41:23;101560.25;;;3.14;82.06
75188;BME280;63762;51.334;22.108;2023-01-13T01:51:32;101544.77;;;3.02;82.73
75188;BME280;63762;51.334;22.108;2023-01-13T02:01:36;101526.05;;;3.05;82.61
75188;BME280;63762;51.334;22.108;2023-01-13T02:11:40;101546.54;;;3.02;82.70
75188;BME280;63762;51.334;22.108;2023-01-13T02:22:18;101524.90;;;3.12;82.31
75188;BME280;63762;51.334;22.108;2023-01-13T02:42:35;101492.12;;;3.12;82.24
75188;BME280;63762;51.334;22.108;2023-01-13T02:52:54;101493.00;;;3.12;82.25
75188;BME280;63762;51.334;22.108;2023-01-13T03:02:57;101488.64;;;3.10;82.41
75188;BME280;63762;51.334;22.108;2023-01-13T03:23:20;101454.17;;;3.31;82.73
75188;BME280;63762;51.334;22.108;2023-01-13T03:33:32;101470.88;;;3.56;82.31
75188;BME280;63762;51.334;22.108;2023-01-13T03:54:06;101444.55;;;3.93;81.32
75188;BME280;63762;51.334;22.108;2023-01-13T04:04:15;101437.80;;;4.06;80.89
75188;BME280;63762;51.334;22.108;2023-01-13T04:14:20;101451.91;;;4.08;80.46
75188;BME280;63762;51.334;22.108;2023-01-13T04:24:23;101433.80;;;4.16;80.45
75188;BME280;63762;51.334;22.108;2023-01-13T04:34:24;101435.70;;;4.34;79.57
75188;BME280;63762;51.334;22.108;2023-01-13T04:44:25;101439.22;;;4.35;79.89
75188;BME280;63762;51.334;22.108;2023-01-13T04:54:27;101423.98;;;4.38;79.61
75188;BME280;63762;51.334;22.108;2023-01-13T05:04:28;101433.98;;;4.53;79.04
75188;BME280;63762;51.334;22.108;2023-01-13T05:14:29;101423.77;;;4.63;79.33
75188;BME280;63762;51.334;22.108;2023-01-13T05:24:42;101427.38;;;4.62;78.84
75188;BME280;63762;51.334;22.108;2023-01-13T05:34:55;101429.68;;;4.69;79.00
75188;BME280;63762;51.334;22.108;2023-01-13T05:44:56;101428.64;;;4.74;78.95
75188;BME280;63762;51.334;22.108;2023-01-13T05:54:57;101435.89;;;4.70;78.95
75188;BME280;63762;51.334;22.108;2023-01-13T06:04:58;101431.30;;;4.74;78.87
75188;BME280;63762;51.334;22.108;2023-01-13T06:14:59;101437.60;;;4.71;79.13
75188;BME280;63762;51.334;22.108;2023-01-13T06:25:01;101442.40;;;4.83;78.50
75188;BME280;63762;51.334;22.108;2023-01-13T06:35:06;101435.52;;;4.98;78.26
75188;BME280;63762;51.334;22.108;2023-01-13T06:45:09;101452.73;;;4.91;78.73
75188;BME280;63762;51.334;22.108;2023-01-13T06:55:11;101452.96;;;5.05;78.80
75188;BME280;63762;51.334;22.108;2023-01-13T07:05:12;101444.34;;;5.18;77.81
75188;BME280;63762;51.334;22.108;2023-01-13T07:15:15;101449.26;;;5.27;77.17
75188;BME280;63762;51.334;22.108;2023-01-13T07:25:22;101441.53;;;5.40;77.36
75188;BME280;63762;51.334;22.108;2023-01-13T07:35:29;101461.96;;;5.41;77.21
75188;BME280;63762;51.334;22.108;2023-01-13T07:45:36;101451.30;;;5.41;77.48
75188;BME280;63762;51.334;22.108;2023-01-13T07:55:44;101457.61;;;5.38;77.39
75188;BME280;63762;51.334;22.108;2023-01-13T08:05:50;101472.64;;;5.41;77.69
75188;BME280;63762;51.334;22.108;2023-01-13T08:16:01;101472.39;;;5.45;77.72
75188;BME280;63762;51.334;22.108;2023-01-13T08:26:07;101472.11;;;5.51;77.30
75188;BME280;63762;51.334;22.108;2023-01-13T08:36:12;101472.70;;;5.58;77.04
75188;BME280;63762;51.334;22.108;2023-01-13T08:46:19;101473.34;;;5.63;76.90
75188;BME280;63762;51.334;22.108;2023-01-13T08:56:28;101475.79;;;5.67;76.71
75188;BME280;63762;51.334;22.108;2023-01-13T09:06:33;101467.70;;;5.69;76.59
75188;BME280;63762;51.334;22.108;2023-01-13T09:16:40;101470.89;;;5.77;76.67
75188;BME280;63762;51.334;22.108;2023-01-13T09:26:48;101454.46;;;5.86;76.20
75188;BME280;63762;51.334;22.108;2023-01-13T09:36:54;101445.06;;;5.96;76.20
75188;BME280;63762;51.334;22.108;2023-01-13T09:47:04;101440.99;;;6.06;76.05
75188;BME280;63762;51.334;22.108;2023-01-13T09:57:15;101431.89;;;6.27;75.33
75188;BME280;63762;51.334;22.108;2023-01-13T10:07:17;101434.18;;;6.34;75.00
75188;BME280;63762;51.334;22.108;2023-01-13T10:17:31;101431.41;;;6.53;74.36
75188;BME280;63762;51.334;22.108;2023-01-13T10:27:36;101406.88;;;6.62;74.03
75188;BME280;63762;51.334;22.108;2023-01-13T10:37:38;101409.08;;;6.71;74.18
75188;BME280;63762;51.334;22.108;2023-01-13T10:48:02;101408.60;;;6.80;73.26
75188;BME280;63762;51.334;22.108;2023-01-13T10:57:55;101389.47;;;6.88;72.70
75188;BME280;63762;51.334;22.108;2023-01-13T11:07:59;101374.73;;;6.96;73.23
75188;BME280;63762;51.334;22.108;2023-01-13T11:18:13;101373.62;;;7.00;72.78
75188;BME280;63762;51.334;22.108;2023-01-13T11:48:47;101370.02;;;7.32;72.17
75188;BME280;63762;51.334;22.108;2023-01-13T12:09:15;101358.45;;;7.32;72.08
75188;BME280;63762;51.334;22.108;2023-01-13T12:29:33;101349.36;;;7.34;73.62
75188;BME280;63762;51.334;22.108;2023-01-13T12:49:47;101333.92;;;7.39;73.25
75188;BME280;63762;51.334;22.108;2023-01-13T13:30:35;101341.88;;;7.41;72.42
75188;BME280;63762;51.334;22.108;2023-01-13T13:40:42;101337.56;;;7.38;73.15
75188;BME280;63762;51.334;22.108;2023-01-13T13:51:01;101345.34;;;7.43;72.97
75188;BME280;63762;51.334;22.108;2023-01-13T14:13:25;101344.90;;;7.19;73.70
75188;BME280;63762;51.334;22.108;2023-01-13T14:23:32;101349.95;;;6.93;74.49
75188;BME280;63762;51.334;22.108;2023-01-13T14:33:43;101328.80;;;6.88;74.66
75188;BME280;63762;51.334;22.108;2023-01-13T14:43:46;101346.05;;;6.82;74.80
75188;BME280;63762;51.334;22.108;2023-01-13T14:53:48;101345.08;;;6.68;75.52
75188;BME280;63762;51.334;22.108;2023-01-13T15:03:50;101350.15;;;6.57;75.45
75188;BME280;63762;51.334;22.108;2023-01-13T15:14:00;101342.96;;;6.57;75.50
75188;BME280;63762;51.334;22.108;2023-01-13T15:24:04;101347.95;;;6.48;75.70
75188;BME280;63762;51.334;22.108;2023-01-13T15:34:11;101362.59;;;6.41;76.27
75188;BME280;63762;51.334;22.108;2023-01-13T15:44:18;101352.22;;;6.35;76.64
75188;BME280;63762;51.334;22.108;2023-01-13T15:54:31;101363.05;;;6.32;76.25
75188;BME280;63762;51.334;22.108;2023-01-13T16:04:32;101367.00;;;6.25;76.90
75188;BME280;63762;51.334;22.108;2023-01-13T16:14:40;101365.55;;;6.18;77.10
75188;BME280;63762;51.334;22.108;2023-01-13T16:24:47;101376.17;;;6.19;77.42
75188;BME280;63762;51.334;22.108;2023-01-13T16:34:54;101378.30;;;6.13;77.47
75188;BME280;63762;51.334;22.108;2023-01-13T16:45:01;101360.87;;;6.06;77.83
75188;BME280;63762;51.334;22.108;2023-01-13T16:55:08;101371.40;;;6.09;77.36
75188;BME280;63762;51.334;22.108;2023-01-13T17:05:16;101393.06;;;6.20;77.34
75188;BME280;63762;51.334;22.108;2023-01-13T17:15:22;101376.81;;;6.24;77.02
75188;BME280;63762;51.334;22.108;2023-01-13T17:25:29;101374.52;;;6.17;77.05
75188;BME280;63762;51.334;22.108;2023-01-13T17:35:39;101383.34;;;6.19;76.63
75188;BME280;63762;51.334;22.108;2023-01-13T17:45:44;101392.92;;;6.23;76.59
75188;BME280;63762;51.334;22.108;2023-01-13T17:55:53;101389.79;;;6.32;76.34
75188;BME280;63762;51.334;22.108;2023-01-13T18:06:03;101391.81;;;6.27;76.16
75188;BME280;63762;51.334;22.108;2023-01-13T18:16:07;101391.96;;;6.24;76.04
75188;BME280;63762;51.334;22.108;2023-01-13T18:26:19;101385.06;;;6.20;76.07
75188;BME280;63762;51.334;22.108;2023-01-13T18:36:32;101394.71;;;6.22;76.31
75188;BME280;63762;51.334;22.108;2023-01-13T18:46:33;101394.33;;;6.13;77.38
75188;BME280;63762;51.334;22.108;2023-01-13T18:56:35;101402.80;;;6.21;77.94
75188;BME280;63762;51.334;22.108;2023-01-13T19:06:46;101415.70;;;6.13;78.93
75188;BME280;63762;51.334;22.108;2023-01-13T19:16:50;101419.92;;;6.00;80.02
75188;BME280;63762;51.334;22.108;2023-01-13T19:26:55;101427.14;;;5.98;80.11
75188;BME280;63762;51.334;22.108;2023-01-13T19:37:03;101431.63;;;5.97;80.53
75188;BME280;63762;51.334;22.108;2023-01-13T19:47:09;101424.55;;;5.96;80.13
75188;BME280;63762;51.334;22.108;2023-01-13T19:57:16;101419.66;;;5.87;80.79
75188;BME280;63762;51.334;22.108;2023-01-13T20:07:27;101439.08;;;5.91;81.01
75188;BME280;63762;51.334;22.108;2023-01-13T20:17:31;101452.13;;;5.97;81.00
75188;BME280;63762;51.334;22.108;2023-01-13T20:27:38;101449.38;;;5.98;80.79
75188;BME280;63762;51.334;22.108;2023-01-13T20:37:45;101450.80;;;6.05;80.41
75188;BME280;63762;51.334;22.108;2023-01-13T20:47:52;101467.85;;;6.03;80.24
75188;BME280;63762;51.334;22.108;2023-01-13T20:57:59;101471.29;;;6.05;79.97
75188;BME280;63762;51.334;22.108;2023-01-13T21:08:06;101472.41;;;6.18;79.50
75188;BME280;63762;51.334;22.108;2023-01-13T21:18:14;101484.86;;;6.19;79.19
75188;BME280;63762;51.334;22.108;2023-01-13T21:28:27;101490.36;;;6.33;79.65
75188;BME280;63762;51.334;22.108;2023-01-13T21:38:32;101497.84;;;6.26;80.82
75188;BME280;63762;51.334;22.108;2023-01-13T21:48:35;101504.66;;;6.15;81.40
75188;BME280;63762;51.334;22.108;2023-01-13T21:58:42;101512.99;;;6.26;81.04
75188;BME280;63762;51.334;22.108;2023-01-13T22:08:49;101514.64;;;6.28;80.94
75188;BME280;63762;51.334;22.108;2023-01-13T22:18:56;101525.55;;;6.24;80.96
75188;BME280;63762;51.334;22.108;2023-01-13T22:29:03;101524.30;;;6.31;81.15
75188;BME280;63762;51.334;22.108;2023-01-13T22:39:10;101539.13;;;6.19;81.68
75188;BME280;63762;51.334;22.108;2023-01-13T22:49:18;101544.50;;;6.01;82.70
75188;BME280;63762;51.334;22.108;2023-01-13T22:59:25;101546.22;;;6.02;82.88
75188;BME280;63762;51.334;22.108;2023-01-13T23:09:32;101553.39;;;6.01;83.22
75188;BME280;63762;51.334;22.108;2023-01-13T23:19:39;101563.84;;;5.87;83.85
75188;BME280;63762;51.334;22.108;2023-01-13T23:29:46;101564.00;;;6.03;83.32
75188;BME280;63762;51.334;22.108;2023-01-13T23:39:53;101565.66;;;5.87;84.21
75188;BME280;63762;51.334;22.108;2023-01-13T23:50:00;101568.34;;;5.87;84.01
